Terminal Aerodrome Forecast
Issued by NWS

Home | Current Version | Previous Version | Text Only | Print | Product List | Glossary On
Versions: 1 2 3 4 5 6 7 8 9 10 11 12 13 14 15 16 17 18 19 20 21 22 23 24 25 26 27 28 29 30 31 32 33 34 35 36 37 38 39 40
000
FTUS43 KGRB 261738
TAFATW
TAF
KATW 261738Z 2618/2718 14005KT P6SM SCT030 BKN100
     FM270800 22004KT 5SM BR SCT002 SCT070
      TEMPO 2708/2712 1SM BR OVC002
     FM271300 22004KT P6SM SCT004 SCT080
     FM271500 22006KT P6SM SCT090=

USA.gov is the U.S. government's official web portal to all federal, state and local government web resources and services.